Time;durP1;ratioP1;P1;durP2;ratioP2;P2;SDS_P1;SDS_P2;PMS_P1;PMS_P2;Temp;Humidity;BMP_temperature;BMP_pressure;BME280_temperature;BME280_humidity;BME280_pressure;Samples;Min_cycle;Max_cycle;Signal;HPM_P1;HPM_P2
2022/06/23 00:01:33;;;;;;;;;;;;;;;13.19;100.00;98426.31;1729659;82;20095;-67
2022/06/23 00:04:00;;;;;;;;;;;;;;;13.20;100.00;98424.58;1753072;81;21126;-67
2022/06/23 00:06:38;;;;;;;;;;;;;;;13.21;100.00;98427.55;1753308;81;20093;-67
2022/06/23 00:09:38;;;;;;;;;;;;;;;13.24;100.00;98421.11;1753013;82;20082;-66
2022/06/23 00:12:15;;;;;;;;;;;;;;;13.25;100.00;98426.26;1752981;82;20670;-66
2022/06/23 00:14:42;;;;;;;;;;;;;;;13.28;100.00;98421.41;1749209;82;20441;-66
2022/06/23 00:17:29;;;;;;;;;;;;;;;13.28;100.00;98415.89;1753107;81;21124;-65
2022/06/23 00:19:58;;;;;;;;;;;;;;;13.28;100.00;98412.34;1752958;81;20147;-66
2022/06/23 00:22:26;;;;;;;;;;;;;;;13.29;100.00;98420.80;1753278;82;20115;-67
2022/06/23 00:24:56;;;;;;;;;;;;;;;13.29;100.00;98418.84;1753090;81;20171;-67
2022/06/23 00:27:29;;;;;;;;;;;;;;;13.30;100.00;98422.39;1753425;82;20411;-67
2022/06/23 00:29:59;;;;;;;;;;;;;;;13.29;100.00;98423.55;1753259;82;21776;-67
2022/06/23 00:32:26;;;;;;;;;;;;;;;13.30;100.00;98427.91;1752996;82;20075;-67
2022/06/23 00:34:56;;;;;;;;;;;;;;;13.32;100.00;98440.16;1753006;81;20083;-67
2022/06/23 00:37:23;;;;;;;;;;;;;;;13.32;100.00;98445.67;1753094;82;20087;-67
2022/06/23 00:39:55;;;;;;;;;;;;;;;13.34;100.00;98441.98;1753080;82;20162;-67
2022/06/23 00:42:25;;;;;;;;;;;;;;;13.36;100.00;98437.48;1753432;82;21106;-66
2022/06/23 00:45:14;;;;;;;;;;;;;;;13.35;100.00;98439.45;1729547;80;20087;-67
2022/06/23 00:47:53;;;;;;;;;;;;;;;13.36;100.00;98434.73;1753209;81;20147;-66
2022/06/23 00:50:35;;;;;;;;;;;;;;;13.36;100.00;98434.15;1758617;81;20086;-67
2022/06/23 00:53:15;;;;;;;;;;;;;;;13.37;100.00;98427.48;1759906;81;20464;-66
2022/06/23 00:56:05;;;;;;;;;;;;;;;13.39;100.00;98432.63;1760087;81;21108;-68
2022/06/23 00:58:35;;;;;;;;;;;;;;;13.39;100.00;98431.25;1759809;81;20143;-67
2022/06/23 01:01:15;;;;;;;;;;;;;;;13.40;100.00;98435.02;1759885;81;20074;-67
2022/06/23 01:03:54;;;;;;;;;;;;;;;13.42;100.00;98442.36;1783378;80;20106;-68
2022/06/23 01:06:30;;;;;;;;;;;;;;;13.41;100.00;98439.37;1794483;80;20134;-67
2022/06/23 01:09:21;;;;;;;;;;;;;;;13.43;100.00;98437.64;1794355;80;21148;-67
2022/06/23 01:11:55;;;;;;;;;;;;;;;13.42;100.00;98443.73;1794263;80;20146;-68
2022/06/23 01:14:54;;;;;;;;;;;;;;;13.42;100.00;98452.58;1794426;80;20118;-68
2022/06/23 01:17:29;;;;;;;;;;;;;;;13.42;100.00;98441.55;1794297;80;20140;-68
2022/06/23 01:20:02;;;;;;;;;;;;;;;13.41;100.00;98430.31;1794416;80;20130;-68
2022/06/23 01:22:51;;;;;;;;;;;;;;;13.41;100.00;98442.14;1794386;80;21123;-67
2022/06/23 01:25:42;;;;;;;;;;;;;;;13.42;100.00;98433.29;1794655;80;20142;-67
2022/06/23 01:28:15;;;;;;;;;;;;;;;13.45;100.00;98433.95;1794415;80;20142;-67
2022/06/23 01:31:11;;;;;;;;;;;;;;;13.46;100.00;98430.03;1794360;80;20099;-68
2022/06/23 01:33:58;;;;;;;;;;;;;;;13.47;100.00;98437.94;1794510;80;36329;-67
2022/06/23 01:36:37;;;;;;;;;;;;;;;13.47;100.00;98432.42;1794569;80;20532;-67
2022/06/23 01:39:07;;;;;;;;;;;;;;;13.47;100.00;98428.29;1794409;80;20439;-68
2022/06/23 01:41:40;;;;;;;;;;;;;;;13.49;100.00;98418.28;1793741;80;20111;-67
2022/06/23 01:44:20;;;;;;;;;;;;;;;13.50;100.00;98417.12;1794301;80;20498;-67
2022/06/23 01:46:48;;;;;;;;;;;;;;;13.49;100.00;98421.03;1794394;80;20119;-67
2022/06/23 01:49:27;;;;;;;;;;;;;;;13.48;100.00;98416.10;1794279;80;21333;-66
2022/06/23 01:51:56;;;;;;;;;;;;;;;13.46;100.00;98417.63;1794308;80;20489;-66
2022/06/23 01:54:25;;;;;;;;;;;;;;;13.44;100.00;98422.70;1766047;80;20184;-66
2022/06/23 01:57:16;;;;;;;;;;;;;;;13.43;100.00;98427.99;1794741;80;20106;-66
2022/06/23 01:59:47;;;;;;;;;;;;;;;13.43;100.00;98427.41;1793774;80;20107;-68
2022/06/23 02:02:27;;;;;;;;;;;;;;;13.42;100.00;98426.39;1794456;80;21134;-67
2022/06/23 02:05:02;;;;;;;;;;;;;;;13.41;100.00;98418.70;1794403;80;20106;-68
2022/06/23 02:07:33;;;;;;;;;;;;;;;13.40;100.00;98421.82;1794393;80;20142;-67
2022/06/23 02:10:18;;;;;;;;;;;;;;;13.39;100.00;98421.61;1794332;80;20165;-68
2022/06/23 02:13:01;;;;;;;;;;;;;;;13.39;100.00;98425.73;1794504;80;20138;-68
2022/06/23 02:15:56;;;;;;;;;;;;;;;13.39;100.00;98429.30;1760097;80;21170;-67
2022/06/23 02:18:26;;;;;;;;;;;;;;;13.40;100.00;98428.72;1794324;80;20122;-68
2022/06/23 02:21:05;;;;;;;;;;;;;;;13.39;100.00;98424.36;1793121;80;20122;-67
2022/06/23 02:23:36;;;;;;;;;;;;;;;13.37;100.00;98426.68;1765642;80;20118;-68
2022/06/23 02:26:12;;;;;;;;;;;;;;;13.35;100.00;98419.35;1794400;80;20485;-67
2022/06/23 02:28:45;;;;;;;;;;;;;;;13.34;100.00;98422.69;1794267;80;21272;-67
2022/06/23 02:31:48;;;;;;;;;;;;;;;13.34;100.00;98424.64;1794242;80;20165;-68
2022/06/23 02:34:35;;;;;;;;;;;;;;;13.35;100.00;98423.48;1794325;80;20106;-68
2022/06/23 02:37:05;;;;;;;;;;;;;;;13.34;100.00;98427.41;1794229;80;20106;-67
2022/06/23 02:39:48;;;;;;;;;;;;;;;13.32;100.00;98430.52;1794371;80;20122;-66
2022/06/23 02:42:18;;;;;;;;;;;;;;;13.32;100.00;98432.47;1793602;80;21265;-66
2022/06/23 02:45:04;;;;;;;;;;;;;;;13.32;100.00;98436.61;1793685;80;20481;-66
2022/06/23 02:47:47;;;;;;;;;;;;;;;13.33;100.00;98443.14;1794363;80;20213;-66
2022/06/23 02:50:29;;;;;;;;;;;;;;;13.34;100.00;98443.36;1797298;80;20106;-66
2022/06/23 02:53:32;;;;;;;;;;;;;;;13.37;100.00;98448.16;1798666;80;20107;-66
2022/06/23 02:56:18;;;;;;;;;;;;;;;13.39;100.00;98444.45;1798335;80;21111;-67
2022/06/23 02:58:51;;;;;;;;;;;;;;;13.41;100.00;98448.23;1766399;80;20445;-67
2022/06/23 03:01:24;;;;;;;;;;;;;;;13.41;100.00;98446.27;1798424;79;20106;-67
2022/06/23 03:04:06;;;;;;;;;;;;;;;13.42;100.00;98441.55;1796871;79;20474;-67
2022/06/23 03:07:03;;;;;;;;;;;;;;;13.41;100.00;98428.94;1797981;79;20465;-67
2022/06/23 03:09:45;;;;;;;;;;;;;;;13.42;100.00;98458.09;1798162;80;21131;-67
2022/06/23 03:12:19;;;;;;;;;;;;;;;13.43;100.00;98451.42;1798271;80;20115;-67
2022/06/23 03:14:58;;;;;;;;;;;;;;;13.43;100.00;98449.47;1797719;79;20111;-68
2022/06/23 03:17:31;;;;;;;;;;;;;;;13.43;100.00;98456.94;1798447;79;20457;-67
2022/06/23 03:20:01;;;;;;;;;;;;;;;13.43;100.00;98458.31;1797734;79;20485;-67
2022/06/23 03:22:56;;;;;;;;;;;;;;;13.45;100.00;98444.97;1798203;79;21952;-67
2022/06/23 03:25:29;;;;;;;;;;;;;;;13.47;100.00;98461.95;1798168;80;20134;-66
2022/06/23 03:28:00;;;;;;;;;;;;;;;13.50;100.00;98459.27;1798272;80;20107;-66
2022/06/23 03:30:43;;;;;;;;;;;;;;;13.54;100.00;98459.34;1797314;79;20463;-67
2022/06/23 03:33:14;;;;;;;;;;;;;;;13.56;100.00;98457.03;1798310;80;20122;-67
2022/06/23 03:35:44;;;;;;;;;;;;;;;13.59;100.00;98460.44;1780688;80;21157;-67
2022/06/23 03:38:14;;;;;;;;;;;;;;;13.61;100.00;98457.32;1795095;79;20141;-67
2022/06/23 03:43:39;;;;;;;;;;;;;;;13.65;100.00;98461.75;1798068;80;20811;-67
2022/06/23 03:46:19;;;;;;;;;;;;;;;13.68;100.00;98462.41;1798169;80;20094;-68
2022/06/23 03:49:01;;;;;;;;;;;;;;;13.70;100.00;98464.22;1775600;80;21783;-68
2022/06/23 03:51:32;;;;;;;;;;;;;;;13.78;100.00;98467.92;1797836;79;20118;-68
2022/06/23 03:54:14;;;;;;;;;;;;;;;13.98;100.00;98476.97;1795821;80;20258;-68
2022/06/23 03:56:52;;;;;;;;;;;;;;;14.10;100.00;98475.44;1797753;79;20110;-68
2022/06/23 03:59:38;;;;;;;;;;;;;;;14.22;100.00;98475.28;1799618;79;20119;-67
2022/06/23 04:02:16;;;;;;;;;;;;;;;14.35;100.00;98479.47;1797703;79;21853;-67
2022/06/23 04:05:08;;;;;;;;;;;;;;;14.44;100.00;98485.56;1765424;81;20070;-68
2022/06/23 04:07:46;;;;;;;;;;;;;;;14.50;100.00;98479.95;1800210;79;20088;-67
2022/06/23 04:10:21;;;;;;;;;;;;;;;14.54;100.00;98487.72;1798165;79;20401;-68
2022/06/23 04:12:51;;;;;;;;;;;;;;;14.59;100.00;98491.34;1786684;80;20150;-69
2022/06/23 04:15:24;;;;;;;;;;;;;;;14.65;100.00;98486.53;1787003;80;21259;-70
2022/06/23 04:17:54;;;;;;;;;;;;;;;14.71;100.00;98483.67;1787465;80;20146;-68
2022/06/23 04:20:23;;;;;;;;;;;;;;;14.71;100.00;98487.82;1787686;80;20171;-68
2022/06/23 04:22:56;;;;;;;;;;;;;;;14.71;100.00;98478.16;1786899;80;20551;-68
2022/06/23 04:25:26;;;;;;;;;;;;;;;14.79;100.00;98474.34;1787639;80;20442;-68
2022/06/23 04:27:56;;;;;;;;;;;;;;;14.92;100.00;98480.47;1786794;80;21052;-67
2022/06/23 04:30:36;;;;;;;;;;;;;;;14.95;100.00;98482.50;1787396;80;20143;-67
2022/06/23 04:33:04;;;;;;;;;;;;;;;14.99;100.00;98479.80;1786684;80;20146;-67
2022/06/23 04:35:35;;;;;;;;;;;;;;;15.05;100.00;98481.05;1787479;80;20404;-68
2022/06/23 04:38:26;;;;;;;;;;;;;;;15.14;100.00;98476.84;1787390;80;20111;-68
2022/06/23 04:41:11;;;;;;;;;;;;;;;15.23;100.00;98464.73;1786497;80;21185;-67
2022/06/23 04:43:48;;;;;;;;;;;;;;;15.28;100.00;98483.77;1787344;80;20142;-67
2022/06/23 04:46:17;;;;;;;;;;;;;;;15.22;100.00;98489.40;1787552;80;20187;-68
2022/06/23 04:48:59;;;;;;;;;;;;;;;15.13;100.00;98502.90;1785839;80;20122;-68
2022/06/23 04:51:34;;;;;;;;;;;;;;;15.07;100.00;98496.09;1736409;81;20098;-67
2022/06/23 04:54:16;;;;;;;;;;;;;;;15.05;100.00;98505.92;1733872;83;21758;-66
2022/06/23 04:56:58;;;;;;;;;;;;;;;15.05;100.00;98509.48;1733025;83;20082;-67
2022/06/23 04:59:52;;;;;;;;;;;;;;;15.06;100.00;98506.93;1733181;83;20086;-67
2022/06/23 05:02:37;;;;;;;;;;;;;;;15.05;100.00;98519.73;1733084;83;20543;-67
2022/06/23 05:05:15;;;;;;;;;;;;;;;15.07;100.00;98518.20;1732003;83;20149;-68
2022/06/23 05:08:07;;;;;;;;;;;;;;;15.10;100.00;98521.61;1732984;81;21166;-68
2022/06/23 05:10:37;;;;;;;;;;;;;;;15.10;100.00;98513.31;1733025;83;20087;-69
2022/06/23 05:13:07;;;;;;;;;;;;;;;15.12;100.00;98524.80;1733280;83;20402;-66
2022/06/23 05:15:44;;;;;;;;;;;;;;;15.17;100.00;98523.11;1760061;81;20090;-65
2022/06/23 05:18:17;;;;;;;;;;;;;;;15.24;100.00;98519.66;1733051;83;20126;-68
2022/06/23 05:21:01;;;;;;;;;;;;;;;15.30;100.00;98512.64;1731456;83;21151;-68
2022/06/23 05:23:31;;;;;;;;;;;;;;;15.34;100.00;98511.31;1733068;83;20123;-69
2022/06/23 05:26:01;;;;;;;;;;;;;;;15.36;100.00;98521.41;1730735;83;20146;-69
2022/06/23 05:28:30;;;;;;;;;;;;;;;15.41;100.00;98516.95;1732297;83;20503;-71
2022/06/23 05:31:01;;;;;;;;;;;;;;;15.45;100.00;98517.80;1706095;83;20106;-71
2022/06/23 05:33:31;;;;;;;;;;;;;;;15.53;100.00;98526.41;1733306;83;21280;-70
2022/06/23 05:36:06;;;;;;;;;;;;;;;15.59;100.00;98525.54;1732827;83;20094;-68
2022/06/23 05:38:55;;;;;;;;;;;;;;;15.65;100.00;98531.73;1759645;81;20114;-70
2022/06/23 05:41:34;;;;;;;;;;;;;;;15.72;100.00;98533.80;1759769;80;20437;-70
2022/06/23 05:44:03;;;;;;;;;;;;;;;15.79;100.00;98525.59;1759393;81;20098;-70
2022/06/23 05:46:30;;;;;;;;;;;;;;;15.85;100.00;98535.17;1705818;83;20916;-70
2022/06/23 05:49:00;;;;;;;;;;;;;;;15.92;100.00;98529.73;1759899;81;20082;-72
2022/06/23 05:51:39;;;;;;;;;;;;;;;16.01;100.00;98529.45;1782807;80;20115;-70
2022/06/23 05:54:12;;;;;;;;;;;;;;;16.10;100.00;98533.52;1781504;80;20149;-71
2022/06/23 05:56:51;;;;;;;;;;;;;;;16.28;99.70;98528.77;1783511;79;20107;-72
2022/06/23 05:59:30;;;;;;;;;;;;;;;16.46;98.49;98534.71;1782129;80;21001;-69
2022/06/23 06:02:03;;;;;;;;;;;;;;;16.63;98.43;98544.98;1786389;80;20127;-70
2022/06/23 06:04:35;;;;;;;;;;;;;;;16.74;97.16;98544.53;1786576;80;20161;-68
2022/06/23 06:07:03;;;;;;;;;;;;;;;16.80;94.71;98555.45;1786066;79;20106;-69
2022/06/23 06:09:37;;;;;;;;;;;;;;;16.79;94.52;98560.78;1786150;80;20151;-72
2022/06/23 06:12:10;;;;;;;;;;;;;;;16.74;94.08;98559.77;1786040;79;21128;-70
2022/06/23 06:14:41;;;;;;;;;;;;;;;16.68;94.60;98565.45;1786090;80;20493;-68
2022/06/23 06:17:07;;;;;;;;;;;;;;;16.70;94.93;98565.88;1786217;80;20111;-70
2022/06/23 06:19:34;;;;;;;;;;;;;;;16.75;94.65;98562.75;1786453;80;20451;-69
2022/06/23 06:22:07;;;;;;;;;;;;;;;16.86;94.64;98566.41;1786109;80;20122;-68
2022/06/23 06:24:39;;;;;;;;;;;;;;;17.03;93.69;98567.16;1784379;79;21122;-69
2022/06/23 06:27:09;;;;;;;;;;;;;;;17.23;94.42;98566.94;1786429;80;20152;-70
2022/06/23 06:29:37;;;;;;;;;;;;;;;17.40;93.15;98571.22;1785514;80;20455;-70
2022/06/23 06:32:31;;;;;;;;;;;;;;;17.54;90.68;98576.08;1786081;80;20130;-69
2022/06/23 06:35:26;;;;;;;;;;;;;;;17.64;88.97;98551.77;1785932;80;20146;-70
2022/06/23 06:38:02;;;;;;;;;;;;;;;17.75;89.82;98574.88;1786248;80;21908;-70
2022/06/23 06:40:28;;;;;;;;;;;;;;;17.93;89.32;98577.73;1782381;80;20119;-71
2022/06/23 06:42:59;;;;;;;;;;;;;;;18.10;89.09;98564.54;1786094;80;20107;-70
2022/06/23 06:45:27;;;;;;;;;;;;;;;18.23;88.67;98577.50;1785887;80;20142;-70
2022/06/23 06:47:54;;;;;;;;;;;;;;;18.37;88.65;98573.98;1784548;80;20084;-69
2022/06/23 06:50:44;;;;;;;;;;;;;;;18.52;86.38;98587.31;1783541;80;21083;-74
2022/06/23 06:53:32;;;;;;;;;;;;;;;18.57;84.50;98577.20;1799891;78;20411;-69
2022/06/23 06:56:08;;;;;;;;;;;;;;;18.52;83.72;98584.53;1800230;78;20080;-72
2022/06/23 06:59:00;;;;;;;;;;;;;;;18.48;82.70;98581.77;1799627;78;20413;-73
2022/06/23 07:01:27;;;;;;;;;;;;;;;18.42;84.56;98573.02;1800314;78;20068;-71
2022/06/23 07:03:54;;;;;;;;;;;;;;;18.53;83.82;98578.58;1799980;79;21207;-71
2022/06/23 07:06:41;;;;;;;;;;;;;;;18.61;84.06;98566.92;1800198;78;20134;-72
2022/06/23 07:09:26;;;;;;;;;;;;;;;18.67;82.95;98563.97;1799980;78;20079;-72
2022/06/23 07:11:55;;;;;;;;;;;;;;;18.71;82.83;98574.50;1800326;79;20091;-71
2022/06/23 07:14:33;;;;;;;;;;;;;;;18.77;82.52;98573.72;1800089;78;20119;-71
2022/06/23 07:17:02;;;;;;;;;;;;;;;18.84;81.74;98572.95;1800182;78;21737;-72
2022/06/23 07:19:41;;;;;;;;;;;;;;;18.90;82.65;98573.35;1799872;79;20415;-72
2022/06/23 07:22:29;;;;;;;;;;;;;;;18.95;82.67;98572.38;1800388;79;20079;-69
2022/06/23 07:25:05;;;;;;;;;;;;;;;19.07;80.87;98581.70;1799999;79;20091;-69
2022/06/23 07:27:42;;;;;;;;;;;;;;;19.08;80.60;98592.23;1773397;79;20142;-70
2022/06/23 07:30:21;;;;;;;;;;;;;;;19.10;80.25;98593.42;1747104;81;21335;-68
2022/06/23 07:33:03;;;;;;;;;;;;;;;19.21;80.04;98603.17;1736247;81;20082;-69
2022/06/23 07:35:52;;;;;;;;;;;;;;;19.32;78.49;98594.84;1789269;79;20174;-70
2022/06/23 07:38:37;;;;;;;;;;;;;;;19.35;79.08;98611.53;1762467;80;20170;-70
2022/06/23 07:41:11;;;;;;;;;;;;;;;19.45;79.64;98618.30;1788964;80;20094;-70
2022/06/23 07:43:42;;;;;;;;;;;;;;;19.54;78.23;98610.98;1785625;80;21121;-68
2022/06/23 07:46:10;;;;;;;;;;;;;;;19.63;79.07;98616.94;1789164;80;20147;-69
2022/06/23 07:48:37;;;;;;;;;;;;;;;19.66;76.90;98617.51;1759980;80;20107;-69
2022/06/23 07:51:05;;;;;;;;;;;;;;;19.61;78.24;98625.69;1767652;80;20366;-70
2022/06/23 07:53:36;;;;;;;;;;;;;;;19.66;77.63;98635.01;1777559;80;20450;-69
2022/06/23 07:56:04;;;;;;;;;;;;;;;19.69;77.34;98630.03;1783225;80;21517;-67
2022/06/23 07:58:33;;;;;;;;;;;;;;;19.72;78.33;98633.42;1782895;80;20107;-66
2022/06/23 08:01:22;;;;;;;;;;;;;;;19.76;77.82;98624.46;1784714;80;20178;-65
2022/06/23 08:04:09;;;;;;;;;;;;;;;19.83;78.78;98633.41;1786346;80;20437;-66
2022/06/23 08:06:36;;;;;;;;;;;;;;;19.94;76.26;98625.05;1786249;80;20450;-68
2022/06/23 08:09:07;;;;;;;;;;;;;;;19.98;76.29;98646.13;1786391;80;21785;-67
2022/06/23 08:14:25;;;;;;;;;;;;;;;20.03;75.50;98638.76;1786359;80;20462;-65
2022/06/23 08:16:53;;;;;;;;;;;;;;;20.06;75.26;98639.95;1786377;80;20127;-66
2022/06/23 08:19:33;;;;;;;;;;;;;;;20.13;74.90;98643.31;1733211;80;20568;-66
2022/06/23 08:22:06;;;;;;;;;;;;;;;20.16;75.37;98640.52;1782949;80;21149;-67
2022/06/23 08:24:33;;;;;;;;;;;;;;;20.24;74.84;98639.88;1786215;80;20102;-68
2022/06/23 08:27:02;;;;;;;;;;;;;;;20.52;75.11;98645.41;1757867;80;20119;-68
2022/06/23 08:29:42;;;;;;;;;;;;;;;20.86;75.59;98643.44;1758073;80;20166;-67
2022/06/23 08:32:10;;;;;;;;;;;;;;;21.32;73.97;98647.40;1784788;80;20147;-68
2022/06/23 08:34:38;;;;;;;;;;;;;;;21.79;72.61;98652.00;1786499;80;21022;-67
2022/06/23 08:37:09;;;;;;;;;;;;;;;22.14;69.72;98640.50;1785837;80;20102;-67
2022/06/23 08:39:59;;;;;;;;;;;;;;;22.31;66.76;98652.09;1783307;80;20107;-67
2022/06/23 08:42:51;;;;;;;;;;;;;;;22.21;65.13;98650.81;1755110;82;20110;-66
2022/06/23 08:45:24;;;;;;;;;;;;;;;21.88;65.79;98660.70;1755315;82;20128;-66
2022/06/23 08:48:04;;;;;;;;;;;;;;;21.86;67.06;98656.12;1745366;82;21155;-66
2022/06/23 08:50:53;;;;;;;;;;;;;;;22.12;67.36;98656.09;1764890;80;20127;-66
2022/06/23 08:53:43;;;;;;;;;;;;;;;22.36;65.91;98655.84;1773508;80;20162;-67
2022/06/23 08:56:28;;;;;;;;;;;;;;;22.72;63.99;98656.20;1785059;80;20937;-67
2022/06/23 08:59:08;;;;;;;;;;;;;;;22.94;62.36;98658.75;1785862;80;20150;-67
2022/06/23 09:01:58;;;;;;;;;;;;;;;22.81;62.62;98668.31;1764905;79;21163;-69
2022/06/23 09:04:47;;;;;;;;;;;;;;;22.56;62.12;98675.56;1785457;80;20123;-67
2022/06/23 09:07:39;;;;;;;;;;;;;;;22.36;61.93;98672.62;1785838;80;20591;-69
2022/06/23 09:10:42;;;;;;;;;;;;;;;22.23;61.25;98675.74;1785671;80;20143;-69
2022/06/23 09:13:12;;;;;;;;;;;;;;;22.43;62.74;98663.96;1785775;80;20214;-68
2022/06/23 09:15:50;;;;;;;;;;;;;;;22.65;61.49;98677.27;1785810;80;20872;-66
2022/06/23 09:18:26;;;;;;;;;;;;;;;22.77;60.74;98676.53;1784361;80;20110;-69
2022/06/23 09:21:02;;;;;;;;;;;;;;;22.80;60.03;98671.53;1785121;80;20142;-66
2022/06/23 09:23:54;;;;;;;;;;;;;;;22.83;59.91;98676.28;1773638;80;20143;-66
2022/06/23 09:26:29;;;;;;;;;;;;;;;22.83;59.77;98678.48;1786333;80;20122;-67
2022/06/23 09:28:59;;;;;;;;;;;;;;;22.69;58.82;98694.00;1786241;80;21087;-68
2022/06/23 09:31:47;;;;;;;;;;;;;;;22.43;58.91;98688.52;1781092;80;20139;-68
2022/06/23 09:34:42;;;;;;;;;;;;;;;22.13;60.33;98694.81;1785533;80;20458;-68
2022/06/23 09:37:29;;;;;;;;;;;;;;;21.84;59.58;98690.67;1685484;84;20440;-67
2022/06/23 09:40:09;;;;;;;;;;;;;;;21.61;61.30;98700.41;1767809;80;20119;-67
2022/06/23 09:42:42;;;;;;;;;;;;;;;21.50;62.44;98703.09;1786171;80;21210;-67
2022/06/23 09:45:39;;;;;;;;;;;;;;;21.39;62.60;98705.95;1772380;80;20154;-67
2022/06/23 09:48:09;;;;;;;;;;;;;;;21.33;63.80;98713.98;1754593;81;20460;-76
2022/06/23 09:51:07;;;;;;;;;;;;;;;21.27;63.07;98710.03;1754874;82;20113;-69
2022/06/23 09:53:53;;;;;;;;;;;;;;;21.17;63.16;98713.64;1754545;81;20169;-68
2022/06/23 09:56:48;;;;;;;;;;;;;;;21.06;64.18;98722.06;1754640;82;21194;-68
2022/06/23 09:59:52;;;;;;;;;;;;;;;20.97;64.29;98713.93;1754416;82;20217;-69
2022/06/23 10:02:48;;;;;;;;;;;;;;;20.86;64.87;98726.53;1754542;81;20169;-69
2022/06/23 10:05:27;;;;;;;;;;;;;;;20.75;65.21;98717.43;1781597;80;20505;-70
2022/06/23 10:08:19;;;;;;;;;;;;;;;20.77;65.36;98720.61;1754744;81;20153;-69
2022/06/23 10:10:51;;;;;;;;;;;;;;;20.89;65.67;98721.53;1754556;82;21362;-69
2022/06/23 10:13:41;;;;;;;;;;;;;;;21.15;64.57;98726.41;1754431;81;20113;-69
2022/06/23 10:16:18;;;;;;;;;;;;;;;21.33;64.41;98722.36;1754628;80;20174;-70
2022/06/23 10:18:57;;;;;;;;;;;;;;;21.43;63.86;98725.66;1754658;81;20193;-70
2022/06/23 10:21:45;;;;;;;;;;;;;;;21.43;64.37;98727.05;1754954;82;20191;-70
2022/06/23 10:24:34;;;;;;;;;;;;;;;21.35;63.52;98734.52;1754441;82;21137;-70
2022/06/23 10:27:19;;;;;;;;;;;;;;;21.21;63.47;98739.56;1777511;80;20478;-71
2022/06/23 10:30:08;;;;;;;;;;;;;;;21.05;63.56;98744.19;1782656;80;20122;-70
2022/06/23 10:32:44;;;;;;;;;;;;;;;20.91;64.62;98744.24;1768105;80;20122;-70
2022/06/23 10:35:29;;;;;;;;;;;;;;;20.85;65.23;98753.43;1785157;80;20493;-70
2022/06/23 10:38:03;;;;;;;;;;;;;;;20.84;64.38;98749.84;1785589;80;21139;-70
2022/06/23 10:40:50;;;;;;;;;;;;;;;20.92;65.62;98751.41;1785496;80;20119;-71
2022/06/23 10:43:29;;;;;;;;;;;;;;;21.10;65.16;98746.56;1785688;80;20175;-70
2022/06/23 10:46:14;;;;;;;;;;;;;;;21.37;65.25;98751.02;1785610;80;20163;-73
2022/06/23 10:49:05;;;;;;;;;;;;;;;21.71;64.60;98757.41;1784931;80;20222;-74
2022/06/23 10:51:56;;;;;;;;;;;;;;;22.01;61.52;98753.97;1726148;80;21157;-77
2022/06/23 10:54:30;;;;;;;;;;;;;;;22.21;60.67;98747.25;1722447;83;20127;-74
2022/06/23 10:57:25;;;;;;;;;;;;;;;22.34;61.60;98744.14;1766169;80;20199;-71
2022/06/23 10:59:55;;;;;;;;;;;;;;;22.51;60.69;98748.77;1788595;79;20457;-70
2022/06/23 11:02:45;;;;;;;;;;;;;;;22.74;59.29;98746.09;1787577;80;20198;-73
2022/06/23 11:05:15;;;;;;;;;;;;;;;22.91;56.94;98749.94;1788048;80;21456;-68
2022/06/23 11:07:58;;;;;;;;;;;;;;;23.08;55.78;98748.14;1788396;80;20146;-70
2022/06/23 11:10:57;;;;;;;;;;;;;;;23.30;56.51;98752.83;1788815;80;20122;-75
2022/06/23 11:13:44;;;;;;;;;;;;;;;23.49;54.90;98752.17;1788399;79;20190;-70
2022/06/23 11:16:23;;;;;;;;;;;;;;;23.66;54.06;98756.77;1788734;79;20218;-72
2022/06/23 11:19:10;;;;;;;;;;;;;;;23.66;54.17;98773.58;1788558;80;22081;-70
2022/06/23 11:22:00;;;;;;;;;;;;;;;23.57;53.80;98771.11;1788229;80;20150;-70
2022/06/23 11:24:45;;;;;;;;;;;;;;;23.49;53.62;98764.78;1788361;80;20150;-68
2022/06/23 11:27:21;;;;;;;;;;;;;;;23.37;53.93;98770.34;1788493;80;20159;-66
2022/06/23 11:30:07;;;;;;;;;;;;;;;23.21;52.94;98767.34;1788494;80;20450;-67
2022/06/23 11:32:43;;;;;;;;;;;;;;;23.07;53.71;98775.15;1771528;80;21145;-72
2022/06/23 11:35:13;;;;;;;;;;;;;;;22.97;54.31;98783.25;1753981;80;20213;-69
2022/06/23 11:37:52;;;;;;;;;;;;;;;22.84;54.63;98780.80;1788732;80;20253;-69
2022/06/23 11:40:32;;;;;;;;;;;;;;;22.73;55.25;98782.88;1788450;80;20174;-69
2022/06/23 11:43:13;;;;;;;;;;;;;;;22.59;56.04;98792.81;1788761;80;20449;-71
2022/06/23 11:46:01;;;;;;;;;;;;;;;22.42;55.41;98796.59;1788489;79;21195;-70
2022/06/23 11:48:44;;;;;;;;;;;;;;;22.30;55.91;98797.29;1788386;80;20130;-70
2022/06/23 11:51:30;;;;;;;;;;;;;;;22.31;55.68;98793.89;1788495;80;20317;-69
2022/06/23 11:54:13;;;;;;;;;;;;;;;22.31;54.53;98801.67;1787856;80;20198;-69
2022/06/23 11:56:55;;;;;;;;;;;;;;;22.27;54.85;98807.11;1786322;80;20234;-70
2022/06/23 11:59:31;;;;;;;;;;;;;;;22.22;55.06;98806.94;1786227;80;21247;-70
2022/06/23 12:01:57;;;;;;;;;;;;;;;22.16;55.79;98818.37;1784287;80;20206;-68
2022/06/23 12:04:44;;;;;;;;;;;;;;;22.12;56.44;98807.81;1786820;80;20167;-68
2022/06/23 12:07:35;;;;;;;;;;;;;;;22.11;56.72;98828.59;1786807;80;20649;-69
2022/06/23 12:10:16;;;;;;;;;;;;;;;22.07;57.21;98826.42;1786669;80;20481;-71
2022/06/23 12:12:44;;;;;;;;;;;;;;;22.06;57.12;98827.02;1786535;80;21130;-69
2022/06/23 12:15:11;;;;;;;;;;;;;;;22.07;57.39;98826.42;1786620;80;20186;-71
2022/06/23 12:17:41;;;;;;;;;;;;;;;22.13;57.24;98830.37;1786628;80;20130;-70
2022/06/23 12:20:35;;;;;;;;;;;;;;;22.19;57.45;98845.50;1762438;80;20513;-69
2022/06/23 12:23:05;;;;;;;;;;;;;;;22.20;57.62;98846.30;1786552;80;20462;-70
2022/06/23 12:25:39;;;;;;;;;;;;;;;22.14;55.56;98841.74;1786548;80;21078;-70
2022/06/23 12:28:28;;;;;;;;;;;;;;;22.01;55.42;98841.42;1786865;80;20111;-69
2022/06/23 12:31:14;;;;;;;;;;;;;;;21.95;55.49;98842.27;1786596;80;20167;-69
2022/06/23 12:33:47;;;;;;;;;;;;;;;21.99;56.09;98846.59;1787022;80;20242;-70
2022/06/23 12:36:23;;;;;;;;;;;;;;;22.09;56.33;98842.17;1730461;80;20190;-71
2022/06/23 12:38:53;;;;;;;;;;;;;;;22.20;55.83;98857.48;1734464;80;21241;-71
2022/06/23 12:41:26;;;;;;;;;;;;;;;22.18;55.31;98863.48;1798992;79;20160;-69
2022/06/23 12:43:59;;;;;;;;;;;;;;;22.05;55.14;98862.37;1797698;80;20159;-71
2022/06/23 12:46:48;;;;;;;;;;;;;;;21.89;56.03;98871.23;1739002;81;20094;-75
2022/06/23 12:49:27;;;;;;;;;;;;;;;21.77;56.47;98866.11;1737110;81;20162;-73
2022/06/23 12:52:16;;;;;;;;;;;;;;;21.68;57.11;98866.55;1786580;80;21784;-72
2022/06/23 12:54:52;;;;;;;;;;;;;;;21.56;57.27;98873.19;1786195;79;20486;-72
2022/06/23 12:57:42;;;;;;;;;;;;;;;21.46;57.62;98874.83;1784390;80;20435;-70
2022/06/23 13:00:15;;;;;;;;;;;;;;;21.36;57.84;98877.09;1784176;80;20116;-70
2022/06/23 13:02:51;;;;;;;;;;;;;;;21.27;58.32;98876.71;1784163;80;20140;-69
2022/06/23 13:05:24;;;;;;;;;;;;;;;21.24;58.33;98878.91;1784268;80;21190;-69
2022/06/23 13:08:04;;;;;;;;;;;;;;;21.20;58.78;98875.30;1779885;80;20495;-73
2022/06/23 13:10:46;;;;;;;;;;;;;;;21.17;58.94;98876.91;1780047;80;20100;-70
2022/06/23 13:13:25;;;;;;;;;;;;;;;21.17;59.72;98885.28;1778050;80;20172;-71
2022/06/23 13:16:06;;;;;;;;;;;;;;;21.14;59.71;98890.88;1759081;80;20375;-71
2022/06/23 13:18:45;;;;;;;;;;;;;;;21.06;59.46;98889.48;1784572;80;21136;-75
2022/06/23 13:21:25;;;;;;;;;;;;;;;21.00;59.74;98887.50;1785623;80;20162;-70
2022/06/23 13:24:04;;;;;;;;;;;;;;;20.96;60.32;98888.91;1785615;80;20163;-70
2022/06/23 13:26:48;;;;;;;;;;;;;;;20.90;60.27;98886.92;1785760;80;20186;-70
2022/06/23 13:29:18;;;;;;;;;;;;;;;20.76;60.59;98893.34;1784617;80;20313;-71
2022/06/23 13:31:50;;;;;;;;;;;;;;;20.67;61.19;98902.70;1787497;80;21117;-70
2022/06/23 13:34:28;;;;;;;;;;;;;;;20.59;61.71;98897.72;1782814;80;20142;-69
2022/06/23 13:37:12;;;;;;;;;;;;;;;20.57;61.73;98906.28;1782245;80;20194;-70
2022/06/23 13:39:45;;;;;;;;;;;;;;;20.54;61.63;98898.72;1790299;80;20136;-68
2022/06/23 13:42:21;;;;;;;;;;;;;;;20.52;62.09;98905.28;1793729;80;20506;-70
2022/06/23 13:45:03;;;;;;;;;;;;;;;20.54;62.50;98900.11;1755912;81;21794;-72
2022/06/23 13:47:51;;;;;;;;;;;;;;;20.58;62.59;98893.34;1782240;80;20210;-69